createdAt,value
2022-08-01T00:00:39.696Z,21.91
2022-08-01T00:03:25.649Z,21.80
2022-08-01T00:06:11.649Z,21.82
2022-08-01T00:08:57.580Z,21.78
2022-08-01T00:11:43.452Z,21.73
2022-08-01T00:14:32.096Z,21.58
2022-08-01T00:17:18.484Z,21.67
2022-08-01T00:20:06.688Z,21.66
2022-08-01T00:22:52.802Z,21.43
2022-08-01T00:25:38.689Z,21.45
2022-08-01T00:28:24.914Z,21.41
2022-08-01T00:31:11.438Z,21.40
2022-08-01T00:33:57.185Z,21.34
2022-08-01T00:36:43.281Z,21.29
2022-08-01T00:39:29.137Z,21.24
2022-08-01T00:42:15.076Z,21.22
2022-08-01T00:45:01.227Z,21.21
2022-08-01T00:47:47.209Z,21.16
2022-08-01T00:50:33.625Z,21.09
2022-08-01T00:53:19.561Z,21.09
2022-08-01T00:56:05.529Z,20.97
2022-08-01T00:58:52.216Z,20.94
2022-08-01T01:01:39.781Z,21.00
2022-08-01T01:04:26.270Z,20.95
2022-08-01T01:07:25.403Z,20.92
2022-08-01T01:10:17.933Z,20.79
2022-08-01T01:13:28.874Z,20.82
2022-08-01T01:16:16.984Z,20.81
2022-08-01T01:19:06.138Z,20.81
2022-08-01T01:22:20.862Z,20.70
2022-08-01T01:25:48.618Z,20.58
2022-08-01T01:29:05.196Z,20.57
2022-08-01T01:32:08.888Z,20.54
2022-08-01T01:34:55.850Z,20.45
2022-08-01T01:37:43.278Z,20.46
2022-08-01T01:40:30.836Z,20.42
2022-08-01T01:43:17.772Z,20.30
2022-08-01T01:46:05.092Z,20.10
2022-08-01T01:48:51.643Z,20.35
2022-08-01T01:51:38.559Z,20.23
2022-08-01T01:54:27.342Z,20.27
2022-08-01T01:57:14.239Z,20.23
2022-08-01T02:00:01.071Z,20.17
2022-08-01T02:02:47.487Z,20.17
2022-08-01T02:05:35.803Z,20.10
2022-08-01T02:08:24.310Z,20.02
2022-08-01T02:11:19.831Z,20.05
2022-08-01T02:14:09.225Z,19.88
2022-08-01T02:16:56.122Z,19.85
2022-08-01T02:19:42.383Z,19.85
2022-08-01T02:22:53.689Z,19.71
2022-08-01T02:26:10.924Z,19.72
2022-08-01T02:28:58.708Z,19.58
2022-08-01T02:31:48.020Z,19.57
2022-08-01T02:34:34.329Z,19.52
2022-08-01T02:37:22.049Z,19.45
2022-08-01T02:40:09.709Z,19.33
2022-08-01T02:43:03.076Z,19.31
2022-08-01T02:45:52.521Z,19.26
2022-08-01T02:48:39.801Z,19.25
2022-08-01T02:51:26.996Z,19.21
2022-08-01T02:54:13.396Z,19.21
2022-08-01T02:56:59.984Z,19.13
2022-08-01T02:59:46.713Z,19.01
2022-08-01T03:02:35.350Z,19.06
2022-08-01T03:05:21.549Z,19.04
2022-08-01T03:08:11.903Z,19.10
2022-08-01T03:11:00.794Z,19.00
2022-08-01T03:13:48.300Z,18.82
2022-08-01T03:16:34.865Z,18.97
2022-08-01T03:19:21.696Z,18.93
2022-08-01T03:22:09.032Z,18.90
2022-08-01T03:24:55.343Z,18.78
2022-08-01T03:27:43.582Z,18.87
2022-08-01T03:30:31.186Z,18.77
2022-08-01T03:33:17.400Z,18.78
2022-08-01T03:36:04.120Z,18.73
2022-08-01T03:38:51.472Z,18.74
2022-08-01T03:41:40.813Z,18.70
2022-08-01T03:44:30.123Z,18.63
2022-08-01T03:47:17.480Z,18.64
2022-08-01T03:50:09.347Z,18.57
2022-08-01T03:53:00.467Z,18.49
2022-08-01T03:55:46.902Z,18.39
2022-08-01T03:58:32.832Z,18.39
2022-08-01T04:01:19.990Z,18.25
2022-08-01T04:04:06.875Z,18.31
2022-08-01T04:06:55.348Z,18.32
2022-08-01T04:09:43.517Z,18.33
2022-08-01T04:12:29.757Z,18.35
2022-08-01T04:15:16.280Z,18.35
2022-08-01T04:18:02.063Z,18.29
2022-08-01T04:20:48.228Z,18.27
2022-08-01T04:23:36.163Z,18.15
2022-08-01T04:26:22.810Z,18.34
2022-08-01T04:29:09.601Z,18.30
2022-08-01T04:31:57.745Z,18.39
2022-08-01T04:34:47.125Z,18.29
2022-08-01T04:37:33.731Z,18.38
2022-08-01T04:40:22.975Z,18.36
2022-08-01T04:43:09.255Z,18.40
2022-08-01T04:45:55.452Z,18.39
2022-08-01T04:48:41.914Z,18.49
2022-08-01T04:51:27.985Z,18.48
2022-08-01T04:54:14.106Z,18.51
2022-08-01T04:57:01.158Z,18.64
2022-08-01T04:59:47.361Z,18.66
2022-08-01T05:02:33.702Z,18.66
2022-08-01T05:05:19.577Z,18.75
2022-08-01T05:08:07.200Z,18.62
2022-08-01T05:10:53.862Z,18.81
2022-08-01T05:13:39.674Z,18.78
2022-08-01T05:16:25.617Z,18.95
2022-08-01T05:19:11.693Z,18.88
2022-08-01T05:22:00.203Z,18.99
2022-08-01T05:24:48.095Z,19.01
2022-08-01T05:27:41.557Z,19.15
2022-08-01T05:30:28.345Z,19.19
2022-08-01T05:33:14.390Z,19.26
2022-08-01T05:36:00.237Z,19.26
2022-08-01T05:38:46.584Z,19.26
2022-08-01T05:41:32.787Z,19.38
2022-08-01T05:44:18.877Z,19.33
2022-08-01T05:47:04.850Z,19.56
2022-08-01T05:49:50.972Z,19.62
2022-08-01T05:52:36.950Z,19.64
2022-08-01T05:55:22.881Z,19.74
2022-08-01T05:58:08.828Z,19.72
2022-08-01T06:00:59.219Z,19.86
2022-08-01T06:03:45.235Z,19.92
2022-08-01T06:06:31.312Z,20.03
2022-08-01T06:09:17.189Z,20.07
2022-08-01T06:12:04.628Z,20.20
2022-08-01T06:14:50.927Z,20.36
2022-08-01T06:17:37.017Z,20.45
2022-08-01T06:20:23.039Z,20.57
2022-08-01T06:23:22.531Z,20.62
2022-08-01T06:26:18.934Z,20.73
2022-08-01T06:29:04.913Z,20.83
2022-08-01T06:31:50.856Z,20.84
2022-08-01T06:34:37.043Z,21.00
2022-08-01T06:37:23.830Z,21.10
2022-08-01T06:40:16.216Z,21.09
2022-08-01T06:43:03.068Z,21.21
2022-08-01T06:45:49.104Z,21.25
2022-08-01T06:48:36.368Z,21.43
2022-08-01T06:51:22.809Z,21.52
2022-08-01T06:54:10.429Z,21.66
2022-08-01T06:56:56.414Z,21.73
2022-08-01T06:59:42.458Z,21.79
2022-08-01T07:02:40.471Z,21.89
2022-08-01T07:05:27.329Z,22.03
2022-08-01T07:08:15.844Z,22.06
2022-08-01T07:11:02.906Z,22.22
2022-08-01T07:13:49.558Z,22.33
2022-08-01T07:16:35.606Z,22.35
2022-08-01T13:44:15.769Z,27.18
2022-08-01T13:47:14.762Z,27.50
2022-08-01T13:50:04.085Z,27.82
2022-08-01T13:52:50.529Z,28.17
2022-08-01T13:55:36.573Z,28.49
2022-08-01T13:58:25.167Z,28.74
2022-08-01T14:01:11.489Z,28.98
2022-08-01T14:03:57.829Z,29.10
2022-08-01T14:06:44.287Z,29.40
2022-08-01T14:09:32.451Z,29.63
2022-08-01T14:12:19.250Z,29.89
2022-08-01T14:15:06.140Z,30.05
2022-08-01T14:17:52.660Z,30.20
2022-08-01T14:20:39.834Z,30.37
2022-08-01T14:23:25.828Z,30.43
2022-08-01T14:26:12.595Z,30.42
2022-08-01T14:28:58.964Z,30.51
2022-08-01T14:31:45.160Z,30.62
2022-08-01T14:34:31.462Z,30.59
2022-08-01T14:37:17.461Z,30.81
2022-08-01T14:40:07.325Z,30.93
2022-08-01T14:42:53.874Z,31.15
2022-08-01T14:45:41.034Z,31.28
2022-08-01T14:48:27.521Z,31.40
2022-08-01T14:51:13.828Z,31.61
2022-08-01T14:54:00.217Z,31.60
2022-08-01T14:56:46.269Z,31.82
2022-08-01T14:59:34.674Z,32.04
2022-08-01T15:02:21.160Z,32.16
2022-08-01T15:05:08.347Z,32.28
2022-08-01T15:07:54.373Z,32.38
2022-08-01T15:10:40.708Z,32.50
2022-08-01T15:13:26.752Z,32.70
2022-08-01T15:16:12.753Z,32.78
2022-08-01T15:18:58.903Z,32.92
2022-08-01T15:21:44.913Z,33.03
2022-08-01T15:24:31.354Z,33.20
2022-08-01T15:27:18.439Z,33.22
2022-08-01T15:30:05.067Z,33.23
2022-08-01T15:32:51.389Z,33.33
2022-08-01T15:35:38.097Z,33.21
2022-08-01T15:38:24.077Z,33.37
2022-08-01T15:41:10.500Z,33.25
2022-08-01T15:43:56.905Z,33.24
2022-08-01T15:46:43.306Z,33.17
2022-08-01T15:49:29.979Z,33.06
2022-08-01T15:52:22.069Z,32.92
2022-08-01T15:55:09.790Z,32.74
2022-08-01T15:57:56.373Z,32.60
2022-08-01T16:00:42.445Z,32.48
2022-08-01T16:03:28.842Z,32.37
2022-08-01T16:06:15.216Z,32.22
2022-08-01T16:09:01.800Z,31.91
2022-08-01T16:11:51.078Z,31.60
2022-08-01T16:14:37.783Z,31.63
2022-08-01T16:17:24.295Z,31.58
2022-08-01T16:20:11.108Z,31.39
2022-08-01T16:22:57.159Z,31.42
2022-08-01T16:25:45.149Z,31.18
2022-08-01T16:28:31.908Z,31.10
2022-08-01T16:31:23.380Z,31.04
2022-08-01T16:34:24.061Z,30.93
2022-08-01T16:37:10.470Z,30.77
2022-08-01T16:39:57.478Z,30.70
2022-08-01T16:42:43.741Z,30.45
2022-08-01T16:45:29.830Z,30.43
2022-08-01T16:48:18.381Z,30.32
2022-08-01T16:51:04.962Z,30.18
2022-08-01T16:53:51.469Z,30.15
2022-08-01T16:56:37.590Z,29.95
2022-08-01T16:59:23.940Z,29.98
2022-08-01T17:02:11.312Z,29.95
2022-08-01T17:04:57.711Z,29.81
2022-08-01T17:07:43.898Z,29.84
2022-08-01T17:10:30.401Z,29.79
2022-08-01T17:13:16.553Z,29.74
2022-08-01T17:16:02.891Z,29.70
2022-08-01T17:18:49.551Z,29.62
2022-08-01T17:21:37.880Z,29.54
2022-08-01T17:24:26.352Z,29.45
2022-08-01T17:27:13.484Z,29.42
2022-08-01T17:30:00.184Z,29.12
2022-08-01T17:32:48.069Z,29.24
2022-08-01T17:35:34.397Z,29.20
2022-08-01T17:38:21.044Z,29.20
2022-08-01T17:41:07.231Z,29.11
2022-08-01T17:43:53.394Z,29.04
2022-08-01T17:46:39.573Z,28.98
2022-08-01T17:49:52.236Z,28.99
2022-08-01T17:52:33.219Z,28.89
2022-08-01T17:55:54.031Z,28.86
2022-08-01T17:58:36.777Z,28.81
2022-08-01T18:01:33.176Z,28.73
2022-08-01T18:04:21.003Z,28.71
2022-08-01T18:07:08.798Z,28.56
2022-08-01T18:09:55.755Z,28.64
2022-08-01T18:12:42.265Z,28.57
2022-08-01T18:15:29.713Z,28.61
2022-08-01T18:18:21.164Z,28.47
2022-08-01T18:21:20.477Z,28.51
2022-08-01T18:24:07.133Z,28.47
2022-08-01T18:26:54.327Z,28.42
2022-08-01T18:29:46.990Z,28.30
2022-08-01T18:32:34.850Z,28.32
2022-08-01T18:35:22.643Z,28.30
2022-08-01T18:38:17.442Z,28.22
2022-08-01T18:41:05.230Z,28.18
2022-08-01T18:43:52.429Z,28.15
2022-08-01T18:46:50.510Z,27.99
2022-08-01T18:49:36.871Z,28.00
2022-08-01T18:52:28.504Z,27.98
2022-08-01T18:55:18.206Z,27.90
2022-08-01T18:58:04.743Z,27.85
2022-08-01T19:00:51.468Z,27.74
2022-08-01T19:03:42.501Z,27.72
2022-08-01T19:06:28.976Z,27.67
2022-08-01T19:09:20.380Z,27.60
2022-08-01T19:12:07.791Z,27.59
2022-08-01T19:14:54.290Z,27.52
2022-08-01T19:17:40.477Z,27.45
2022-08-01T19:20:27.033Z,27.39
2022-08-01T19:23:32.390Z,27.36
2022-08-01T19:26:23.309Z,27.29
2022-08-01T19:29:17.346Z,27.18
2022-08-01T19:32:05.628Z,27.16
2022-08-01T19:35:02.227Z,27.07
2022-08-01T19:37:54.100Z,27.01
2022-08-01T19:40:40.065Z,26.98
2022-08-01T19:43:27.483Z,26.89
2022-08-01T19:46:14.971Z,26.88
2022-08-01T19:49:04.026Z,26.79
2022-08-01T19:51:52.907Z,26.74
2022-08-01T19:54:42.295Z,26.70
2022-08-01T19:57:38.792Z,26.63
2022-08-01T20:00:32.428Z,26.45
2022-08-01T20:03:19.282Z,26.43
2022-08-01T20:06:06.419Z,26.43
2022-08-01T20:08:52.843Z,26.41
2022-08-01T20:11:44.650Z,26.32
2022-08-01T20:14:30.426Z,26.29
2022-08-01T20:17:16.748Z,26.25
2022-08-01T20:20:04.787Z,26.22
2022-08-01T20:22:54.003Z,26.13
2022-08-01T20:25:42.381Z,26.06
2022-08-01T20:28:29.662Z,25.95
2022-08-01T20:31:16.610Z,25.94
2022-08-01T20:34:02.742Z,25.88
2022-08-01T20:36:56.657Z,25.89
2022-08-01T20:39:45.014Z,25.78
2022-08-01T20:42:32.244Z,25.67
2022-08-01T20:45:18.721Z,25.56
2022-08-01T20:48:06.434Z,25.47
2022-08-01T20:51:11.076Z,25.38
2022-08-01T20:53:58.162Z,25.36
2022-08-01T20:56:49.224Z,25.32
2022-08-01T20:59:55.966Z,25.18
2022-08-01T21:03:04.846Z,25.18
2022-08-01T21:05:59.037Z,25.09
2022-08-01T21:08:47.661Z,25.05
2022-08-01T21:11:43.802Z,24.97
2022-08-01T21:14:41.173Z,24.92
2022-08-01T21:17:43.573Z,24.82
2022-08-01T21:20:31.866Z,24.71
2022-08-01T21:23:36.321Z,24.68
2022-08-01T21:26:24.175Z,24.63
2022-08-01T21:29:10.905Z,24.63
2022-08-01T21:32:14.492Z,24.55
2022-08-01T21:35:02.264Z,24.53
2022-08-01T21:37:52.088Z,24.40
2022-08-01T21:40:38.954Z,24.41
2022-08-01T21:43:25.289Z,24.39
2022-08-01T21:46:12.409Z,24.25
2022-08-01T21:48:58.454Z,24.24
2022-08-01T21:51:52.088Z,24.22
2022-08-01T21:54:59.927Z,24.19
2022-08-01T21:57:51.889Z,24.11
2022-08-01T22:00:41.047Z,24.05
2022-08-01T22:03:35.812Z,23.96
2022-08-01T22:06:22.422Z,23.77
2022-08-01T22:09:08.516Z,23.66
2022-08-01T22:12:01.434Z,23.55
2022-08-01T22:14:54.105Z,23.15
2022-08-01T22:17:40.316Z,23.24
2022-08-01T22:20:28.002Z,23.28
2022-08-01T22:23:14.225Z,23.32
2022-08-01T22:26:02.177Z,23.25
2022-08-01T22:28:51.199Z,23.27
2022-08-01T22:31:38.152Z,23.26
2022-08-01T22:34:26.677Z,23.22
2022-08-01T22:37:15.012Z,23.16
2022-08-01T22:40:05.061Z,23.19
2022-08-01T22:42:59.688Z,23.12
2022-08-01T22:45:48.641Z,23.11
2022-08-01T22:48:45.620Z,23.08
2022-08-01T22:51:40.789Z,22.95
2022-08-01T22:54:37.433Z,22.96
2022-08-01T22:57:29.737Z,22.97
2022-08-01T23:00:17.820Z,22.93
2022-08-01T23:03:07.604Z,22.90
2022-08-01T23:06:22.299Z,22.75
2022-08-01T23:09:09.549Z,22.81
2022-08-01T23:11:55.753Z,22.79
2022-08-01T23:14:42.613Z,22.78
2022-08-01T23:17:31.065Z,22.72
2022-08-01T23:20:17.579Z,22.67
2022-08-01T23:23:03.822Z,22.66
2022-08-01T23:25:49.867Z,22.66
2022-08-01T23:28:36.506Z,22.58
2022-08-01T23:31:26.963Z,22.54
2022-08-01T23:34:28.533Z,22.54
2022-08-01T23:37:15.484Z,22.46
2022-08-01T23:40:01.534Z,22.47
2022-08-01T23:42:47.580Z,22.43
2022-08-01T23:45:38.183Z,22.35
2022-08-01T23:48:39.760Z,22.35
2022-08-01T23:51:25.970Z,22.33
2022-08-01T23:54:12.729Z,22.24
2022-08-01T23:57:00.040Z,22.26
2022-08-01T23:59:52.782Z,22.22
